Terminal Aerodrome Forecast
Issued by NWS

Home | Current Version | Previous Version | Text Only | Print | Product List | Glossary On
Versions: 1 2 3 4 5 6 7 8 9 10 11 12 13 14 15 16
000
FTUS45 KABQ 251747
TAFTCC
TAF
KTCC 251747Z 2518/2618 12010KT P6SM SCT060 BKN120
     FM260000 13010KT P6SM VCSH SCT060 BKN120 PROB30 2606/2609
      VRB20G30KT 6SM -TSRA BKN035CB
     FM260900 20006KT P6SM VCSH BKN100
     FM261500 20011KT P6SM SCT140=

USA.gov is the U.S. government's official web portal to all federal, state and local government web resources and services.